Willow Street, PA

11:23 AM EST on February 12, 2016 (GMT -0500)
Willow Street | | Change Station
CLOSE
Current Station
Personal Weather Station
Location: Willow Street, PA
Elevation: 476 ft
Nearby Weather Stations

Elev 476 ft 39.97 °N, 76.27 °W | Updated 3 minutes ago

Clear
Clear
21.7 °F
Feels Like 22 °F
N
2.0
Wind Variable Wind from SW
Gusts 3.0 mph

Today
High -- | Low -- °F
--% Chance of Precip.
Yesterday
High -- | Low -- °F
Precip. -- in
Pressure 30.25 in
Visibility 10.0 miles
Clouds Clear
Windchill 22 °F
Dew Point 8 °F
Humidity 54%
Rainfall 0.00 in
Snow Depth Not available.
7:02 AM 5:36 PM
Waxing Crescent, 21% visible
METAR KLNS 121553Z 00000KT 10SM CLR M08/M14 A3023 RMK AO2 SLP242 T10831139
Pressure 30.25 in
Visibility 10.0 miles
Clouds Clear
Windchill 22 °F
Dew Point 8 °F
Humidity 54%
Rainfall 0.00 in
Snow Depth Not available.
7:02 AM 5:36 PM
Waxing Crescent, 21% visible
METAR KLNS 121553Z 00000KT 10SM CLR M08/M14 A3023 RMK AO2 SLP242 T10831139

10-Day Weather Forecast

Almanac

Astronomy

Feb. 12, 2016 Rise Set
Actual Time
Civil Twilight
Nautical Twilight
Astronomical Twilight
Moon
Length of Visible Light
Length of Day
Tomorrow will be .
, % of the Moon is Illuminated

Today's Extremes

State Highs State Lows

Community

WunderPhotos

Upload Photos

1,892,350 photos uploaded!

WunderBlog® & News

Nearby

Air Quality

  Air Quality AQ Index Pollutant
Not available.

Snow Depth

Station Depth Elevation

Earthquake Activity

City Distance Mag. Time & Date
Minimum magnitude displayed is 2.5.

Coastal Water Temperatures

Place Temperature

Stations

Nearby Weather Stations

Station Location Temp. Windchill Dew Point Humidity Wind Precip. Elev Updated Type
                   

Watches & Warnings

There are currently no watches in effect.